createdAt,value
2018-12-20T00:00:45.713Z,17.40
2018-12-20T00:03:14.932Z,18.30
2018-12-20T00:05:44.078Z,18.17
2018-12-20T00:08:13.017Z,18.70
2018-12-20T00:10:41.942Z,18.13
2018-12-20T00:13:10.785Z,18.47
2018-12-20T00:15:39.686Z,19.10
2018-12-20T00:18:08.592Z,19.20
2018-12-20T00:20:37.463Z,18.80
2018-12-20T00:23:06.293Z,18.97
2018-12-20T00:25:35.081Z,19.30
2018-12-20T00:28:03.886Z,19.40
2018-12-20T00:30:32.824Z,19.90
2018-12-20T00:33:01.667Z,19.60
2018-12-20T00:35:30.601Z,19.60
2018-12-20T00:37:59.492Z,18.93
2018-12-20T00:40:28.433Z,20.20
2018-12-20T00:42:57.314Z,20.73
2018-12-20T00:45:26.320Z,20.60
2018-12-20T00:47:55.379Z,20.80
2018-12-20T00:50:24.160Z,21.33
2018-12-20T00:52:53.190Z,20.80
2018-12-20T00:55:22.261Z,21.70
2018-12-20T00:57:51.082Z,20.73
2018-12-20T01:00:20.252Z,20.57
2018-12-20T01:02:55.174Z,20.47
2018-12-20T01:05:19.997Z,22.03
2018-12-20T01:07:48.853Z,21.77
2018-12-20T01:10:17.607Z,20.37
2018-12-20T01:12:46.320Z,22.17
2018-12-20T01:15:15.283Z,22.63
2018-12-20T01:17:44.196Z,22.23
2018-12-20T01:20:13.262Z,22.30
2018-12-20T01:22:42.013Z,22.43
2018-12-20T01:25:10.699Z,21.13
2018-12-20T01:27:39.534Z,22.20
2018-12-20T01:30:08.676Z,22.27
2018-12-20T01:32:37.549Z,21.57
2018-12-20T01:35:06.414Z,22.00
2018-12-20T01:37:35.268Z,22.43
2018-12-20T01:40:04.960Z,22.13
2018-12-20T01:42:33.734Z,20.80
2018-12-20T01:45:02.735Z,21.83
2018-12-20T01:47:31.552Z,22.20
2018-12-20T01:50:00.390Z,21.97
2018-12-20T01:52:29.220Z,20.80
2018-12-20T01:54:58.021Z,21.63
2018-12-20T01:57:26.780Z,21.73
2018-12-20T01:59:55.678Z,22.00
2018-12-20T02:02:24.647Z,22.27
2018-12-20T02:04:53.584Z,21.90
2018-12-20T02:07:22.419Z,21.43
2018-12-20T02:09:51.221Z,23.37
2018-12-20T02:12:20.059Z,23.53
2018-12-20T02:14:48.820Z,23.90
2018-12-20T02:17:17.641Z,23.40
2018-12-20T02:19:46.522Z,22.10
2018-12-20T02:22:15.409Z,22.07
2018-12-20T02:24:44.296Z,22.37
2018-12-20T02:27:13.122Z,22.67
2018-12-20T02:29:42.068Z,23.17
2018-12-20T02:32:10.844Z,22.90
2018-12-20T02:34:39.886Z,23.30
2018-12-20T02:37:08.739Z,23.63
2018-12-20T02:39:37.581Z,24.07
2018-12-20T02:42:06.442Z,23.70
2018-12-20T02:44:35.275Z,23.33
2018-12-20T02:47:04.159Z,24.90
2018-12-20T02:49:33.057Z,23.33
2018-12-20T02:52:02.123Z,23.30
2018-12-20T02:54:31.256Z,23.63
2018-12-20T02:57:00.179Z,22.90
2018-12-20T02:59:29.078Z,23.23
2018-12-20T03:01:58.398Z,22.70
2018-12-20T03:04:27.209Z,23.83
2018-12-20T03:06:56.119Z,23.97
2018-12-20T03:09:25.037Z,23.53
2018-12-20T03:11:53.839Z,25.07
2018-12-20T03:14:22.725Z,23.73
2018-12-20T03:16:51.649Z,23.67
2018-12-20T03:19:20.561Z,24.77
2018-12-20T03:21:49.663Z,24.00
2018-12-20T03:24:18.709Z,21.97
2018-12-20T03:26:47.887Z,23.17
2018-12-20T03:29:16.710Z,23.77
2018-12-20T03:31:45.547Z,23.13
2018-12-20T03:34:14.491Z,23.27
2018-12-20T03:36:43.349Z,24.17
2018-12-20T03:39:12.202Z,24.07
2018-12-20T03:41:41.060Z,23.63
2018-12-20T03:44:09.884Z,22.93
2018-12-20T03:46:38.679Z,23.23
2018-12-20T03:49:07.673Z,23.47
2018-12-20T03:51:36.747Z,24.23
2018-12-20T03:54:05.722Z,23.70
2018-12-20T03:56:34.622Z,24.43
2018-12-20T03:59:03.587Z,24.40
2018-12-20T04:01:32.476Z,23.33
2018-12-20T04:04:01.256Z,23.47
2018-12-20T04:06:29.993Z,24.07
2018-12-20T04:08:58.812Z,23.90
2018-12-20T04:11:27.715Z,24.67
2018-12-20T04:13:56.564Z,23.47
2018-12-20T04:16:25.294Z,24.87
2018-12-20T04:18:54.178Z,23.43
2018-12-20T04:21:23.160Z,25.03
2018-12-20T04:23:51.968Z,25.07
2018-12-20T04:26:20.862Z,24.33
2018-12-20T04:28:49.605Z,23.03
2018-12-20T04:31:18.415Z,24.20
2018-12-20T04:33:47.366Z,24.30
2018-12-20T04:36:16.346Z,23.93
2018-12-20T04:38:45.844Z,24.37
2018-12-20T04:41:14.837Z,22.83
2018-12-20T04:43:43.621Z,23.73
2018-12-20T04:46:12.396Z,23.23
2018-12-20T04:48:41.224Z,24.57
2018-12-20T04:51:10.346Z,24.10
2018-12-20T04:53:39.157Z,24.47
2018-12-20T04:56:07.853Z,24.03
2018-12-20T04:58:36.793Z,22.87
2018-12-20T05:01:06.063Z,23.73
2018-12-20T05:03:35.216Z,22.77
2018-12-20T05:06:04.183Z,23.07
2018-12-20T05:08:32.988Z,23.77
2018-12-20T05:11:01.694Z,22.87
2018-12-20T05:13:30.781Z,23.57
2018-12-20T05:15:59.851Z,25.00
2018-12-20T05:18:28.806Z,23.00
2018-12-20T05:20:57.735Z,22.40
2018-12-20T05:23:26.803Z,24.93
2018-12-20T05:25:55.836Z,23.57
2018-12-20T05:28:24.755Z,23.47
2018-12-20T05:30:54.088Z,23.30
2018-12-20T05:33:23.129Z,23.40
2018-12-20T05:35:52.023Z,23.03
2018-12-20T05:38:20.919Z,23.27
2018-12-20T05:40:49.850Z,22.67
2018-12-20T05:43:18.636Z,24.83
2018-12-20T05:45:47.753Z,23.53
2018-12-20T05:48:16.823Z,23.87
2018-12-20T05:50:45.890Z,22.10
2018-12-20T05:53:14.929Z,23.77
2018-12-20T05:55:43.920Z,24.13
2018-12-20T05:58:12.881Z,22.60
2018-12-20T06:00:41.774Z,23.87
2018-12-20T06:03:10.735Z,24.50
2018-12-20T06:05:39.484Z,23.77
2018-12-20T06:08:08.838Z,23.57
2018-12-20T06:10:37.610Z,24.17
2018-12-20T06:13:06.344Z,22.70
2018-12-20T06:15:35.522Z,24.23
2018-12-20T06:18:04.396Z,23.23
2018-12-20T06:20:33.434Z,23.60
2018-12-20T06:23:02.274Z,23.37
2018-12-20T06:25:31.029Z,23.27
2018-12-20T06:27:59.802Z,25.30
2018-12-20T06:30:28.906Z,22.53
2018-12-20T06:32:58.001Z,24.10
2018-12-20T06:35:26.953Z,23.53
2018-12-20T06:37:55.827Z,23.80
2018-12-20T06:40:24.689Z,24.23
2018-12-20T06:42:53.538Z,23.00
2018-12-20T06:45:22.612Z,23.27
2018-12-20T06:47:51.525Z,24.30
2018-12-20T06:50:20.335Z,24.10
2018-12-20T06:52:49.200Z,24.87
2018-12-20T06:55:17.927Z,24.20
2018-12-20T06:57:46.723Z,24.60
2018-12-20T07:00:15.800Z,24.10
2018-12-20T07:02:44.576Z,24.47
2018-12-20T07:05:13.345Z,24.03
2018-12-20T07:07:42.101Z,23.47
2018-12-20T07:10:10.844Z,23.00
2018-12-20T07:12:39.699Z,23.17
2018-12-20T07:15:09.405Z,22.93
2018-12-20T07:17:38.187Z,24.63
2018-12-20T07:20:07.089Z,23.90
2018-12-20T07:22:35.939Z,23.37
2018-12-20T07:25:05.148Z,23.77
2018-12-20T07:27:36.219Z,23.63
2018-12-20T07:30:07.273Z,22.33
2018-12-20T07:32:36.124Z,22.90
2018-12-20T07:35:05.614Z,22.63
2018-12-20T07:37:34.433Z,24.93
2018-12-20T07:40:03.844Z,23.23
2018-12-20T07:42:32.820Z,24.77
2018-12-20T07:45:01.605Z,22.53
2018-12-20T07:47:30.438Z,24.43
2018-12-20T07:49:59.184Z,23.37
2018-12-20T07:52:27.975Z,22.77
2018-12-20T07:54:56.890Z,22.90
2018-12-20T07:57:25.627Z,24.30
2018-12-20T07:59:54.555Z,22.57
2018-12-20T08:02:23.586Z,23.57
2018-12-20T08:04:52.371Z,24.70
2018-12-20T08:07:22.234Z,23.20
2018-12-20T08:09:51.011Z,23.93
2018-12-20T08:12:19.748Z,23.57
2018-12-20T08:14:48.563Z,23.80
2018-12-20T08:17:17.373Z,23.03
2018-12-20T08:19:52.755Z,23.17
2018-12-20T08:22:21.541Z,23.33
2018-12-20T08:24:50.361Z,23.53
2018-12-20T08:27:19.163Z,23.53
2018-12-20T08:29:48.027Z,23.87
2018-12-20T08:32:16.873Z,23.93
2018-12-20T08:34:45.686Z,24.03
2018-12-20T08:37:14.614Z,24.20
2018-12-20T08:39:43.350Z,22.37
2018-12-20T08:42:12.164Z,23.17
2018-12-20T08:44:41.012Z,22.37
2018-12-20T08:47:09.898Z,21.93
2018-12-20T08:49:38.655Z,23.30
2018-12-20T08:52:07.511Z,21.13
2018-12-20T08:54:36.652Z,23.83
2018-12-20T08:57:05.410Z,23.57
2018-12-20T08:59:34.456Z,22.80
2018-12-20T09:02:03.171Z,22.07
2018-12-20T09:04:31.992Z,22.30
2018-12-20T09:07:00.754Z,22.97
2018-12-20T09:09:29.670Z,22.93
2018-12-20T09:11:58.395Z,23.27
2018-12-20T09:14:27.107Z,24.00
2018-12-20T09:17:02.817Z,23.80
2018-12-20T09:19:26.748Z,22.43
2018-12-20T09:21:55.477Z,22.83
2018-12-20T09:24:25.250Z,23.23
2018-12-20T09:26:53.968Z,23.00
2018-12-20T09:29:22.751Z,23.27
2018-12-20T09:31:51.713Z,22.87
2018-12-20T09:34:20.481Z,24.17
2018-12-20T09:36:49.387Z,22.87
2018-12-20T09:39:18.312Z,23.07
2018-12-20T09:41:47.170Z,24.10
2018-12-20T09:44:16.033Z,21.80
2018-12-20T09:46:45.021Z,21.70
2018-12-20T09:49:13.925Z,23.20
2018-12-20T09:51:42.810Z,23.30
2018-12-20T09:54:11.549Z,21.97
2018-12-20T09:56:40.594Z,25.43
2018-12-20T09:59:09.437Z,22.57
2018-12-20T10:01:38.393Z,21.97
2018-12-20T10:04:07.237Z,21.00
2018-12-20T10:06:36.022Z,22.90
2018-12-20T10:09:07.220Z,22.43
2018-12-20T10:11:35.958Z,21.33
2018-12-20T10:14:04.892Z,22.60
2018-12-20T10:16:33.910Z,21.40
2018-12-20T10:19:02.744Z,22.33
2018-12-20T10:21:35.916Z,22.03
2018-12-20T10:24:07.164Z,21.63
2018-12-20T10:26:39.608Z,21.53
2018-12-20T10:29:09.599Z,22.23
2018-12-20T10:31:39.808Z,21.10
2018-12-20T10:34:12.407Z,21.03
2018-12-20T10:36:41.896Z,20.77
2018-12-20T10:39:10.691Z,24.40
2018-12-20T10:41:39.400Z,21.27
2018-12-20T10:44:08.124Z,21.40
2018-12-20T10:46:36.960Z,20.57
2018-12-20T10:49:05.675Z,20.93
2018-12-20T10:51:34.393Z,20.33
2018-12-20T10:54:03.259Z,20.47
2018-12-20T10:56:32.036Z,20.90
2018-12-20T10:59:00.760Z,21.57
2018-12-20T11:01:35.153Z,19.77
2018-12-20T11:04:09.507Z,21.07
2018-12-20T11:06:43.906Z,20.47
2018-12-20T11:09:20.378Z,20.23
2018-12-20T11:11:55.025Z,20.67
2018-12-20T11:14:23.785Z,20.20
2018-12-20T11:16:52.509Z,20.77
2018-12-20T11:19:21.320Z,21.23
2018-12-20T11:21:50.059Z,20.97
2018-12-20T11:24:18.869Z,20.13
2018-12-20T11:26:47.811Z,19.83
2018-12-20T11:29:16.611Z,19.87
2018-12-20T11:31:45.327Z,20.97
2018-12-20T11:34:14.611Z,21.77
2018-12-20T11:36:43.436Z,20.03
2018-12-20T11:39:12.244Z,18.70
2018-12-20T11:41:41.026Z,19.37
2018-12-20T11:44:10.493Z,19.83
2018-12-20T11:46:39.289Z,19.53
2018-12-20T11:49:08.266Z,19.70
2018-12-20T11:51:37.493Z,19.17
2018-12-20T11:54:06.397Z,20.23
2018-12-20T11:56:35.277Z,19.33
2018-12-20T11:59:04.117Z,18.87
2018-12-20T12:01:32.864Z,19.17
2018-12-20T12:04:01.780Z,19.23
2018-12-20T12:06:30.652Z,18.53
2018-12-20T12:08:59.496Z,18.87
2018-12-20T12:11:28.397Z,19.43
2018-12-20T12:13:57.229Z,18.73
2018-12-20T12:16:25.898Z,18.40
2018-12-20T12:18:54.714Z,18.87
2018-12-20T12:21:23.554Z,18.00
2018-12-20T12:23:52.347Z,17.87
2018-12-20T12:26:21.107Z,19.00
2018-12-20T12:28:49.969Z,18.50
2018-12-20T12:31:18.927Z,18.33
2018-12-20T12:33:47.748Z,19.60
2018-12-20T12:36:17.523Z,18.33
2018-12-20T12:38:46.427Z,18.50
2018-12-20T12:41:15.238Z,19.70
2018-12-20T12:43:44.125Z,18.33
2018-12-20T12:46:12.945Z,18.80
2018-12-20T12:48:41.767Z,18.50
2018-12-20T12:51:10.501Z,18.93
2018-12-20T12:53:39.277Z,18.80
2018-12-20T12:56:08.189Z,18.03
2018-12-20T12:58:37.085Z,17.70
2018-12-20T13:01:06.090Z,17.17
2018-12-20T13:03:34.995Z,17.97
2018-12-20T13:06:03.965Z,18.20
2018-12-20T13:08:33.423Z,17.17
2018-12-20T13:11:02.705Z,18.13
2018-12-20T13:13:31.740Z,17.93
2018-12-20T13:16:00.676Z,18.27
2018-12-20T13:18:29.747Z,17.77
2018-12-20T13:20:58.489Z,18.07
2018-12-20T13:23:27.381Z,18.03
2018-12-20T13:25:56.262Z,20.13
2018-12-20T13:28:25.065Z,17.17
2018-12-20T13:30:54.179Z,17.03
2018-12-20T13:33:23.145Z,17.73
2018-12-20T13:35:52.259Z,18.10
2018-12-20T13:38:21.101Z,17.80
2018-12-20T13:40:49.964Z,17.70
2018-12-20T13:43:18.855Z,17.90
2018-12-20T13:45:47.735Z,17.43
2018-12-20T13:48:22.218Z,17.20
2018-12-20T13:50:47.304Z,17.50
2018-12-20T13:53:16.018Z,16.70
2018-12-20T13:55:44.824Z,18.00
2018-12-20T13:58:13.604Z,17.10
2018-12-20T14:00:42.725Z,16.63
2018-12-20T14:03:11.485Z,17.03
2018-12-20T14:05:40.329Z,17.47
2018-12-20T14:08:09.272Z,16.47
2018-12-20T14:10:38.292Z,17.47
2018-12-20T14:13:07.144Z,17.30
2018-12-20T14:15:36.181Z,17.57
2018-12-20T14:18:05.066Z,17.60
2018-12-20T14:20:33.962Z,16.27
2018-12-20T14:23:02.867Z,17.17
2018-12-20T14:25:32.069Z,16.17
2018-12-20T14:28:00.832Z,17.87
2018-12-20T14:30:29.708Z,17.27
2018-12-20T14:32:58.626Z,18.07
2018-12-20T14:35:27.673Z,17.87
2018-12-20T14:37:56.507Z,18.20
2018-12-20T14:40:25.356Z,16.73
2018-12-20T14:42:54.108Z,17.40
2018-12-20T14:45:23.056Z,16.20
2018-12-20T14:47:52.124Z,16.93
2018-12-20T14:50:20.916Z,17.97
2018-12-20T14:52:49.806Z,15.33
2018-12-20T14:55:18.606Z,17.00
2018-12-20T14:57:47.468Z,15.87
2018-12-20T15:00:17.264Z,16.83
2018-12-20T15:02:46.094Z,16.83
2018-12-20T15:05:15.041Z,16.77
2018-12-20T15:07:43.934Z,17.03
2018-12-20T15:10:13.062Z,16.43
2018-12-20T15:12:41.820Z,16.97
2018-12-20T15:15:10.790Z,16.27
2018-12-20T15:17:39.735Z,17.73
2018-12-20T15:20:09.268Z,18.63
2018-12-20T15:22:38.243Z,17.63
2018-12-20T15:25:07.213Z,18.17
2018-12-20T15:27:36.007Z,18.47
2018-12-20T15:30:05.512Z,16.90
2018-12-20T15:32:34.489Z,18.43
2018-12-20T15:35:03.469Z,16.97
2018-12-20T15:37:32.473Z,17.70
2018-12-20T15:40:01.383Z,17.10
2018-12-20T15:42:30.236Z,17.43
2018-12-20T15:44:59.017Z,16.80
2018-12-20T15:47:27.763Z,17.97
2018-12-20T15:49:56.720Z,16.87
2018-12-20T15:52:25.721Z,17.30
2018-12-20T15:54:54.778Z,16.77
2018-12-20T15:57:23.699Z,17.57
2018-12-20T15:59:52.600Z,17.20
2018-12-20T16:02:21.575Z,18.10
2018-12-20T16:04:50.412Z,16.80
2018-12-20T16:07:19.428Z,18.27
2018-12-20T16:09:48.406Z,17.37
2018-12-20T16:12:17.188Z,17.67
2018-12-20T16:14:46.459Z,17.70
2018-12-20T16:17:15.544Z,18.07
2018-12-20T16:19:44.364Z,18.13
2018-12-20T16:22:13.332Z,16.77
2018-12-20T16:24:42.203Z,17.70
2018-12-20T16:27:11.990Z,18.20
2018-12-20T16:29:40.770Z,17.63
2018-12-20T16:32:10.126Z,16.63
2018-12-20T16:34:39.286Z,17.17
2018-12-20T16:37:08.202Z,17.07
2018-12-20T16:39:37.854Z,17.07
2018-12-20T16:42:06.924Z,17.10
2018-12-20T16:44:35.804Z,17.57
2018-12-20T16:47:04.578Z,16.73
2018-12-20T16:49:33.413Z,17.93
2018-12-20T16:52:02.438Z,17.30
2018-12-20T16:54:31.433Z,17.03
2018-12-20T16:57:00.203Z,16.93
2018-12-20T16:59:29.436Z,17.47
2018-12-20T17:01:58.216Z,16.90
2018-12-20T17:04:27.230Z,16.97
2018-12-20T17:06:56.003Z,16.47
2018-12-20T17:09:24.893Z,16.77
2018-12-20T17:11:53.611Z,17.40
2018-12-20T17:14:22.505Z,15.60
2018-12-20T17:16:51.396Z,16.53
2018-12-20T17:19:22.232Z,17.33
2018-12-20T17:21:51.016Z,17.07
2018-12-20T17:24:19.824Z,17.40
2018-12-20T17:26:48.768Z,17.57
2018-12-20T17:29:17.632Z,16.87
2018-12-20T17:31:46.453Z,18.70
2018-12-20T17:34:15.391Z,17.80
2018-12-20T17:36:44.442Z,18.33
2018-12-20T17:39:14.605Z,16.87
2018-12-20T17:41:43.642Z,16.87
2018-12-20T17:44:12.669Z,16.97
2018-12-20T17:46:41.359Z,16.60
2018-12-20T17:49:10.200Z,15.67
2018-12-20T17:51:39.015Z,18.17
2018-12-20T17:54:07.843Z,16.57
2018-12-20T17:56:36.679Z,15.73
2018-12-20T17:59:05.508Z,15.67
2018-12-20T18:01:34.407Z,15.43
2018-12-20T18:04:03.287Z,16.00
2018-12-20T18:06:32.080Z,16.37
2018-12-20T18:09:00.809Z,15.83
2018-12-20T18:11:29.661Z,16.47
2018-12-20T18:13:58.494Z,17.10
2018-12-20T18:16:27.428Z,16.07
2018-12-20T18:18:56.207Z,15.23
2018-12-20T18:21:25.262Z,14.73
2018-12-20T18:23:54.138Z,15.33
2018-12-20T18:26:22.966Z,16.20
2018-12-20T18:28:52.081Z,16.73
2018-12-20T18:31:21.182Z,16.03
2018-12-20T18:33:50.676Z,16.97
2018-12-20T18:36:19.800Z,15.43
2018-12-20T18:38:48.904Z,16.40
2018-12-20T18:41:18.318Z,16.80
2018-12-20T18:43:47.346Z,16.53
2018-12-20T18:46:16.988Z,17.07
2018-12-20T18:48:46.155Z,17.97
2018-12-20T18:51:15.582Z,18.23
2018-12-20T18:53:44.966Z,16.43
2018-12-20T18:56:14.612Z,16.83
2018-12-20T18:58:44.605Z,18.73
2018-12-20T19:01:14.951Z,17.73
2018-12-20T19:03:43.971Z,18.13
2018-12-20T19:06:13.039Z,17.30
2018-12-20T19:08:42.095Z,15.90
2018-12-20T19:11:10.971Z,16.57
2018-12-20T19:13:39.874Z,16.77
2018-12-20T19:16:08.921Z,16.07
2018-12-20T19:18:38.707Z,16.53
2018-12-20T19:21:07.941Z,19.27
2018-12-20T19:23:37.035Z,16.67
2018-12-20T19:26:06.033Z,16.57
2018-12-20T19:28:34.797Z,16.77
2018-12-20T19:31:03.629Z,15.90
2018-12-20T19:33:32.481Z,16.50
2018-12-20T19:36:01.558Z,15.60
2018-12-20T19:38:30.359Z,15.27
2018-12-20T19:40:59.086Z,14.93
2018-12-20T19:43:27.859Z,15.70
2018-12-20T19:45:56.803Z,16.20
2018-12-20T19:48:25.629Z,17.27
2018-12-20T19:50:54.368Z,15.50
2018-12-20T19:53:23.269Z,15.43
2018-12-20T19:55:52.691Z,14.97
2018-12-20T19:58:21.430Z,15.63
2018-12-20T20:00:50.388Z,15.53
2018-12-20T20:03:19.787Z,15.17
2018-12-20T20:05:48.659Z,15.53
2018-12-20T20:08:17.453Z,15.77
2018-12-20T20:10:46.279Z,16.00
2018-12-20T20:13:19.165Z,14.93
2018-12-20T20:15:46.025Z,15.47
2018-12-20T20:18:14.782Z,15.27
2018-12-20T20:20:43.909Z,14.23
2018-12-20T20:23:12.767Z,14.87
2018-12-20T20:25:41.629Z,15.33
2018-12-20T20:28:10.370Z,15.30
2018-12-20T20:30:39.203Z,15.70
2018-12-20T20:33:07.995Z,15.23
2018-12-20T20:35:36.801Z,14.50
2018-12-20T20:38:05.627Z,15.97
2018-12-20T20:40:34.365Z,14.50
2018-12-20T20:43:03.375Z,14.67
2018-12-20T20:45:32.297Z,14.80
2018-12-20T20:48:01.183Z,14.60
2018-12-20T20:50:30.270Z,14.40
2018-12-20T20:52:58.998Z,15.00
2018-12-20T20:55:27.882Z,13.63
2018-12-20T20:57:56.628Z,14.43
2018-12-20T21:00:25.570Z,13.97
2018-12-20T21:02:55.042Z,14.53
2018-12-20T21:05:24.107Z,15.53
2018-12-20T21:07:52.991Z,15.30
2018-12-20T21:10:21.780Z,14.63
2018-12-20T21:12:50.517Z,14.17
2018-12-20T21:15:19.244Z,13.40
2018-12-20T21:17:48.006Z,14.40
2018-12-20T21:20:16.807Z,12.97
2018-12-20T21:22:45.693Z,13.47
2018-12-20T21:25:14.542Z,14.13
2018-12-20T21:27:43.624Z,12.73
2018-12-20T21:30:12.593Z,12.73
2018-12-20T21:32:41.480Z,12.10
2018-12-20T21:35:10.458Z,12.17
2018-12-20T21:37:39.623Z,11.70
2018-12-20T21:40:08.576Z,11.47
2018-12-20T21:42:37.368Z,11.90
2018-12-20T21:45:08.216Z,11.83
2018-12-20T21:47:36.992Z,11.93
2018-12-20T21:50:08.821Z,11.10
2018-12-20T21:52:37.877Z,11.73
2018-12-20T21:55:07.663Z,11.07
2018-12-20T21:57:36.417Z,11.17
2018-12-20T22:00:06.273Z,11.30
2018-12-20T22:02:35.020Z,10.50
2018-12-20T22:05:03.928Z,11.27
2018-12-20T22:07:33.159Z,10.23
2018-12-20T22:10:01.849Z,10.47
2018-12-20T22:12:30.587Z,10.40
2018-12-20T22:14:59.310Z,9.33
2018-12-20T22:17:28.011Z,10.17
2018-12-20T22:19:58.713Z,9.33
2018-12-20T22:22:27.718Z,9.83
2018-12-20T22:24:56.547Z,9.43
2018-12-20T22:27:25.401Z,9.60
2018-12-20T22:29:54.177Z,9.60
2018-12-20T22:32:22.979Z,9.50
2018-12-20T22:34:51.717Z,10.13
2018-12-20T22:37:20.505Z,8.60
2018-12-20T22:39:49.624Z,9.23
2018-12-20T22:42:18.400Z,8.70
2018-12-20T22:44:47.110Z,8.80
2018-12-20T22:47:15.939Z,8.73
2018-12-20T22:49:44.734Z,9.00
2018-12-20T22:52:13.622Z,9.07
2018-12-20T22:54:42.598Z,8.60
2018-12-20T22:57:11.496Z,8.60
2018-12-20T22:59:40.866Z,8.83
2018-12-20T23:02:17.905Z,8.07
2018-12-20T23:04:40.507Z,8.50
2018-12-20T23:07:09.298Z,8.70
2018-12-20T23:09:38.265Z,8.03
2018-12-20T23:12:07.256Z,8.73
2018-12-20T23:14:36.178Z,8.63
2018-12-20T23:17:05.070Z,7.67
2018-12-20T23:19:33.774Z,7.93
2018-12-20T23:22:02.568Z,8.10
2018-12-20T23:24:31.290Z,7.73
2018-12-20T23:27:00.110Z,7.50
2018-12-20T23:29:30.622Z,7.37
2018-12-20T23:31:59.299Z,8.00
2018-12-20T23:34:28.050Z,7.73
2018-12-20T23:36:56.847Z,6.93
2018-12-20T23:39:25.686Z,7.37
2018-12-20T23:41:54.412Z,7.43
2018-12-20T23:44:23.156Z,7.57
2018-12-20T23:46:52.287Z,7.27
2018-12-20T23:49:21.180Z,6.97
2018-12-20T23:51:49.911Z,6.93
2018-12-20T23:54:18.689Z,7.00
2018-12-20T23:56:47.407Z,6.53
2018-12-20T23:59:16.175Z,6.90
